Time;durP1;ratioP1;P1;durP2;ratioP2;P2;SDS_P1;SDS_P2;PMS_P1;PMS_P2;Temp;Humidity;BMP_temperature;BMP_pressure;BME280_temperature;BME280_humidity;BME280_pressure;Samples;Min_cycle;Max_cycle;Signal;HPM_P1;HPM_P2
2023/01/28 00:00:52;;;;;;;3.85;1.95;;;;;;;;;;4929106;28;93037;-82
2023/01/28 00:03:19;;;;;;;5.10;1.95;;;;;;;;;;4925044;28;95352;-82
2023/01/28 00:05:45;;;;;;;4.15;1.80;;;;;;;;;;4928271;28;93720;-83
2023/01/28 00:08:13;;;;;;;3.80;1.70;;;;;;;;;;4932413;28;93110;-83
2023/01/28 00:10:41;;;;;;;4.00;1.73;;;;;;;;;;4946424;28;93684;-83
2023/01/28 00:13:10;;;;;;;4.80;1.80;;;;;;;;;;4948135;28;93279;-83
2023/01/28 00:15:36;;;;;;;3.30;1.85;;;;;;;;;;4948278;28;92804;-82
2023/01/28 00:18:03;;;;;;;2.90;1.73;;;;;;;;;;4947278;28;93138;-82
2023/01/28 00:20:29;;;;;;;3.85;1.65;;;;;;;;;;4948779;28;92397;-83
2023/01/28 00:22:56;;;;;;;3.92;1.98;;;;;;;;;;4948063;28;92865;-82
2023/01/28 00:25:22;;;;;;;4.22;1.83;;;;;;;;;;4930665;28;93046;-82
2023/01/28 00:27:48;;;;;;;4.25;1.65;;;;;;;;;;4917539;28;95371;-82
2023/01/28 00:30:15;;;;;;;3.63;1.75;;;;;;;;;;4933193;28;95788;-81
2023/01/28 00:32:42;;;;;;;8.07;2.10;;;;;;;;;;4928776;28;92988;-81
2023/01/28 00:35:10;;;;;;;8.93;2.35;;;;;;;;;;4932425;28;92614;-81
2023/01/28 00:37:39;;;;;;;5.15;1.92;;;;;;;;;;4923249;28;93333;-81
2023/01/28 00:40:08;;;;;;;9.10;1.85;;;;;;;;;;4916608;28;92584;-80
2023/01/28 00:42:36;;;;;;;6.90;1.77;;;;;;;;;;4919495;28;93360;-81
2023/01/28 00:45:02;;;;;;;;;;;;;;;;;;4941399;28;92446;-82
2023/01/28 00:47:29;;;;;;;4.53;1.70;;;;;;;;;;4946147;28;105456;-82
2023/01/28 00:49:56;;;;;;;3.83;1.70;;;;;;;;;;4931797;28;95739;-82
2023/01/28 00:52:22;;;;;;;6.07;1.80;;;;;;;;;;4951484;28;100072;-82
2023/01/28 00:54:49;;;;;;;3.42;1.80;;;;;;;;;;4946489;28;96036;-82
2023/01/28 00:57:15;;;;;;;5.15;1.83;;;;;;;;;;4927324;28;93284;-82
2023/01/28 00:59:42;;;;;;;4.60;2.05;;;;;;;;;;4930605;28;92602;-83
2023/01/28 01:02:12;;;;;;;4.35;1.98;;;;;;;;;;4932495;28;93136;-82
2023/01/28 01:04:39;;;;;;;4.78;1.98;;;;;;;;;;4933155;28;93063;-82
2023/01/28 01:07:05;;;;;;;4.80;1.90;;;;;;;;;;4929270;28;92579;-81
2023/01/28 01:09:32;;;;;;;5.78;2.22;;;;;;;;;;4928760;28;95438;-81
2023/01/28 01:11:58;;;;;;;6.57;1.80;;;;;;;;;;4928716;28;93149;-80
2023/01/28 01:14:25;;;;;;;5.80;2.00;;;;;;;;;;4934565;28;92496;-81
2023/01/28 01:16:51;;;;;;;3.35;1.65;;;;;;;;;;4929948;28;95232;-81
2023/01/28 01:19:18;;;;;;;4.35;1.80;;;;;;;;;;4932466;28;92889;-81
2023/01/28 01:21:49;;;;;;;3.67;1.80;;;;;;;;;;4938511;28;92920;-81
2023/01/28 01:24:15;;;;;;;4.00;1.83;;;;;;;;;;4951483;28;93104;-80
2023/01/28 01:26:42;;;;;;;8.27;1.98;;;;;;;;;;4952295;28;93010;-82
2023/01/28 01:29:08;;;;;;;4.32;1.83;;;;;;;;;;4952723;28;92891;-81
2023/01/28 01:31:35;;;;;;;4.88;2.15;;;;;;;;;;4952245;28;92877;-81
2023/01/28 01:34:01;;;;;;;6.40;2.03;;;;;;;;;;4950545;28;92632;-80
2023/01/28 01:36:28;;;;;;;3.67;1.95;;;;;;;;;;4953079;28;92962;-82
2023/01/28 01:38:55;;;;;;;4.93;1.98;;;;;;;;;;4934579;28;92789;-82
2023/01/28 01:41:28;;;;;;;3.70;1.83;;;;;;;;;;4925948;28;95435;-82
2023/01/28 01:43:57;;;;;;;2.65;1.70;;;;;;;;;;4927836;28;92997;-82
2023/01/28 01:46:26;;;;;;;4.60;1.85;;;;;;;;;;4937237;28;94518;-82
2023/01/28 01:48:53;;;;;;;4.07;1.90;;;;;;;;;;4935302;28;94997;-82
2023/01/28 01:51:23;;;;;;;4.57;1.95;;;;;;;;;;4931299;28;92825;-82
2023/01/28 01:53:51;;;;;;;4.32;2.10;;;;;;;;;;4930475;28;92851;-83
2023/01/28 01:56:20;;;;;;;4.03;2.00;;;;;;;;;;4927655;28;92751;-82
2023/01/28 01:58:49;;;;;;;4.68;2.30;;;;;;;;;;4924590;28;95018;-82
2023/01/28 02:01:16;;;;;;;4.43;2.13;;;;;;;;;;4928313;28;94693;-81
2023/01/28 02:03:50;;;;;;;4.78;2.33;;;;;;;;;;4928118;28;95954;-81
2023/01/28 02:06:16;;;;;;;;;;;;;;;;;;4927657;28;95805;-82
2023/01/28 02:08:44;;;;;;;4.85;2.13;;;;;;;;;;4930622;28;120980;-82
2023/01/28 02:11:10;;;;;;;;;;;;;;;;;;4930036;28;93141;-82
2023/01/28 02:13:42;;;;;;;3.95;2.30;;;;;;;;;;4929586;28;92795;-81
2023/01/28 02:16:10;;;;;;;4.63;2.22;;;;;;;;;;4928294;28;94241;-83
2023/01/28 02:18:36;;;;;;;6.00;2.40;;;;;;;;;;4927406;28;93651;-82
2023/01/28 02:21:21;;;;;;;5.25;2.60;;;;;;;;;;4919503;28;95592;-82
2023/01/28 02:24:07;;;;;;;5.85;2.50;;;;;;;;;;4928146;28;95116;-81
2023/01/28 02:26:34;;;;;;;5.25;2.47;;;;;;;;;;4918582;28;93766;-83
2023/01/28 02:29:07;;;;;;;6.05;2.30;;;;;;;;;;4927110;28;93617;-82
2023/01/28 02:31:34;;;;;;;4.28;2.15;;;;;;;;;;4926179;28;97401;-82
2023/01/28 02:34:10;;;;;;;4.78;2.20;;;;;;;;;;4926883;28;92768;-81
2023/01/28 02:36:47;;;;;;;4.55;2.25;;;;;;;;;;4929535;28;93229;-82
2023/01/28 02:39:34;;;;;;;2.80;1.73;;;;;;;;;;4927499;28;94586;-82
2023/01/28 02:42:05;;;;;;;4.75;2.13;;;;;;;;;;4921066;28;92470;-82
2023/01/28 02:44:32;;;;;;;3.17;1.80;;;;;;;;;;4927769;28;95015;-82
2023/01/28 02:49:53;;;;;;;4.57;2.35;;;;;;;;;;4940386;28;95683;-81
2023/01/28 02:55:29;;;;;;;4.28;2.15;;;;;;;;;;4947621;28;93086;-80
2023/01/28 02:58:13;;;;;;;3.97;2.10;;;;;;;;;;4937617;28;95995;-77
2023/01/28 03:00:53;;;;;;;3.90;1.90;;;;;;;;;;4942186;28;96358;-81
2023/01/28 03:03:32;;;;;;;4.00;2.10;;;;;;;;;;4946163;28;92512;-82
2023/01/28 03:06:05;;;;;;;4.18;2.20;;;;;;;;;;4948834;28;95513;-82
2023/01/28 03:36:54;;;;;;;4.57;2.00;;;;;;;;;;4942690;28;100286;-82
2023/01/28 03:39:47;;;;;;;4.80;2.40;;;;;;;;;;4936090;28;92928;-82
2023/01/28 03:42:14;;;;;;;6.18;2.05;;;;;;;;;;4935061;28;95688;-82
2023/01/28 03:45:00;;;;;;;7.80;2.00;;;;;;;;;;4946711;28;94414;-82
2023/01/28 03:47:27;;;;;;;4.05;1.80;;;;;;;;;;4947419;28;92455;-81
2023/01/28 03:49:55;;;;;;;3.58;1.73;;;;;;;;;;4939613;28;95084;-81
2023/01/28 03:52:23;;;;;;;5.53;1.80;;;;;;;;;;4943406;28;102475;-80
2023/01/28 03:54:51;;;;;;;3.20;1.70;;;;;;;;;;4948739;28;92884;-81
2023/01/28 03:57:23;;;;;;;3.53;1.70;;;;;;;;;;4937931;28;95530;-81
2023/01/28 03:59:51;;;;;;;8.80;1.85;;;;;;;;;;4939169;28;94263;-80
2023/01/28 04:02:19;;;;;;;4.45;1.73;;;;;;;;;;4928847;28;94554;-81
2023/01/28 04:04:47;;;;;;;5.72;1.80;;;;;;;;;;4935397;28;95567;-80
2023/01/28 04:07:14;;;;;;;3.85;1.73;;;;;;;;;;4927771;28;92964;-80
2023/01/28 04:10:00;;;;;;;;;;;;;;;;;;4934466;28;92433;-80
2023/01/28 04:12:48;;;;;;;4.13;2.03;;;;;;;;;;4931480;28;95171;-80
2023/01/28 04:15:16;;;;;;;4.50;2.03;;;;;;;;;;4932574;28;92677;-81
2023/01/28 04:17:45;;;;;;;4.60;2.20;;;;;;;;;;4934003;28;95170;-80
2023/01/28 04:20:17;;;;;;;6.05;2.03;;;;;;;;;;4932179;28;92996;-80
2023/01/28 04:22:43;;;;;;;6.43;2.13;;;;;;;;;;4932717;28;95653;-80
2023/01/28 04:25:11;;;;;;;4.35;2.20;;;;;;;;;;4926530;28;95668;-80
2023/01/28 04:27:38;;;;;;;5.05;2.20;;;;;;;;;;4923689;28;92522;-81
2023/01/28 04:30:16;;;;;;;3.70;2.00;;;;;;;;;;4934284;28;95800;-80
2023/01/28 04:33:03;;;;;;;4.40;2.03;;;;;;;;;;4940373;28;95634;-81
2023/01/28 04:35:44;;;;;;;3.95;2.20;;;;;;;;;;4952430;28;92201;-81
2023/01/28 04:38:27;;;;;;;4.15;2.00;;;;;;;;;;4954315;28;98838;-80
2023/01/28 04:41:04;;;;;;;6.70;2.10;;;;;;;;;;4950870;28;92881;-80
2023/01/28 04:43:32;;;;;;;3.72;2.00;;;;;;;;;;4941973;28;94835;-80
2023/01/28 04:46:31;;;;;;;3.78;2.00;;;;;;;;;;4929718;28;97625;-80
2023/01/28 04:49:20;;;;;;;4.22;2.17;;;;;;;;;;4947676;28;93199;-81
2023/01/28 04:51:55;;;;;;;4.53;2.25;;;;;;;;;;4933572;28;92677;-80
2023/01/28 04:54:41;;;;;;;4.93;2.10;;;;;;;;;;4931222;28;100066;-79
2023/01/28 04:57:08;;;;;;;5.60;2.10;;;;;;;;;;4925832;28;92916;-80
2023/01/28 04:59:34;;;;;;;7.70;2.10;;;;;;;;;;4925615;28;95553;-80
2023/01/28 05:02:01;;;;;;;5.72;2.08;;;;;;;;;;4955916;28;93684;-80
2023/01/28 05:04:28;;;;;;;3.72;1.90;;;;;;;;;;4952755;28;94408;-79
2023/01/28 05:06:54;;;;;;;3.55;1.95;;;;;;;;;;4932704;28;95445;-79
2023/01/28 05:09:25;;;;;;;4.22;2.15;;;;;;;;;;4944242;28;94874;-79
2023/01/28 05:11:52;;;;;;;3.80;1.95;;;;;;;;;;4950262;28;98439;-79
2023/01/28 05:14:18;;;;;;;3.53;2.10;;;;;;;;;;4942485;28;94615;-79
2023/01/28 05:16:52;;;;;;;3.45;1.80;;;;;;;;;;4952830;28;93205;-79
2023/01/28 05:19:19;;;;;;;3.72;1.80;;;;;;;;;;4949888;28;95858;-79
2023/01/28 05:21:45;;;;;;;3.72;1.80;;;;;;;;;;4941760;28;95654;-79
2023/01/28 05:24:21;;;;;;;3.63;1.80;;;;;;;;;;4950643;28;99159;-79
2023/01/28 05:26:48;;;;;;;3.55;1.95;;;;;;;;;;4948363;28;95520;-80
2023/01/28 05:29:15;;;;;;;4.15;1.98;;;;;;;;;;4938333;28;92727;-80
2023/01/28 05:31:41;;;;;;;3.63;1.80;;;;;;;;;;4934960;28;95141;-80
2023/01/28 05:34:08;;;;;;;4.53;2.25;;;;;;;;;;4927976;28;95332;-79
2023/01/28 05:36:35;;;;;;;5.78;2.03;;;;;;;;;;4925504;28;92918;-79
2023/01/28 05:39:10;;;;;;;4.22;2.03;;;;;;;;;;4933147;28;94001;-80
2023/01/28 05:41:37;;;;;;;4.32;2.10;;;;;;;;;;4942723;28;95844;-79
2023/01/28 05:44:04;;;;;;;5.13;2.20;;;;;;;;;;4936722;28;92670;-79
2023/01/28 05:46:49;;;;;;;3.20;1.70;;;;;;;;;;4951089;28;95516;-79
2023/01/28 05:49:42;;;;;;;3.70;2.00;;;;;;;;;;4941402;28;92834;-79
2023/01/28 05:52:26;;;;;;;3.88;2.10;;;;;;;;;;4943569;28;99983;-80
2023/01/28 05:54:52;;;;;;;4.00;2.00;;;;;;;;;;4947792;28;95613;-80
2023/01/28 05:57:19;;;;;;;4.28;1.90;;;;;;;;;;4947722;28;92987;-79
2023/01/28 05:59:45;;;;;;;4.07;2.00;;;;;;;;;;4935930;28;94918;-80
2023/01/28 06:02:11;;;;;;;4.45;2.10;;;;;;;;;;4948163;28;94078;-80
2023/01/28 06:04:40;;;;;;;3.97;2.17;;;;;;;;;;4947226;28;92847;-79
2023/01/28 06:07:07;;;;;;;4.30;2.20;;;;;;;;;;4946540;28;95120;-79
2023/01/28 06:09:36;;;;;;;3.55;1.98;;;;;;;;;;4950077;28;95488;-79
2023/01/28 06:12:02;;;;;;;5.03;2.20;;;;;;;;;;4946943;28;95521;-81
2023/01/28 06:14:34;;;;;;;4.65;1.92;;;;;;;;;;4946865;28;93089;-81
2023/01/28 06:17:27;;;;;;;4.47;2.05;;;;;;;;;;4949140;28;91932;-81
2023/01/28 06:20:01;;;;;;;4.57;1.90;;;;;;;;;;4946368;28;94754;-81
2023/01/28 06:22:29;;;;;;;3.78;2.13;;;;;;;;;;4946941;28;95188;-81
2023/01/28 06:24:56;;;;;;;3.60;1.88;;;;;;;;;;4945805;28;95084;-81
2023/01/28 06:27:22;;;;;;;3.88;2.03;;;;;;;;;;4944249;28;97767;-81
2023/01/28 06:29:49;;;;;;;4.20;2.15;;;;;;;;;;4940800;28;94120;-82
2023/01/28 06:32:15;;;;;;;4.70;2.10;;;;;;;;;;4935208;28;92892;-82
2023/01/28 06:34:42;;;;;;;6.05;2.15;;;;;;;;;;4948977;28;92983;-82
2023/01/28 06:37:11;;;;;;;4.68;2.10;;;;;;;;;;4946015;28;93543;-82
2023/01/28 06:39:37;;;;;;;3.15;1.88;;;;;;;;;;4929017;28;93274;-82
2023/01/28 06:42:03;;;;;;;3.97;2.10;;;;;;;;;;4928493;28;92316;-82
2023/01/28 06:44:30;;;;;;;3.45;1.90;;;;;;;;;;4918761;28;93088;-82
2023/01/28 06:46:56;;;;;;;4.72;2.10;;;;;;;;;;4927536;28;100344;-81
2023/01/28 06:49:23;;;;;;;5.50;2.15;;;;;;;;;;4934155;28;95912;-82
2023/01/28 06:51:49;;;;;;;3.67;2.00;;;;;;;;;;4929726;28;93094;-82
2023/01/28 06:54:15;;;;;;;4.35;2.00;;;;;;;;;;4927386;28;93062;-81
2023/01/28 06:56:43;;;;;;;3.65;2.03;;;;;;;;;;4928978;28;92496;-82
2023/01/28 06:59:09;;;;;;;5.35;2.38;;;;;;;;;;4921150;28;92718;-81
2023/01/28 07:01:35;;;;;;;4.97;2.17;;;;;;;;;;4916364;28;93263;-81
2023/01/28 07:04:02;;;;;;;4.65;2.40;;;;;;;;;;4927955;28;92831;-81
2023/01/28 07:06:28;;;;;;;3.78;2.00;;;;;;;;;;4929135;28;93308;-81
2023/01/28 07:08:55;;;;;;;4.38;2.20;;;;;;;;;;4926683;28;93318;-82
2023/01/28 07:11:21;;;;;;;4.72;2.13;;;;;;;;;;4928420;28;92509;-81
2023/01/28 07:13:47;;;;;;;3.40;2.00;;;;;;;;;;4925290;28;95628;-81
2023/01/28 07:16:14;;;;;;;3.67;1.90;;;;;;;;;;4920601;28;93049;-81
2023/01/28 07:18:40;;;;;;;3.80;1.88;;;;;;;;;;4928767;28;93724;-82
2023/01/28 07:21:07;;;;;;;8.60;1.90;;;;;;;;;;4928090;28;93130;-81
2023/01/28 07:23:33;;;;;;;7.20;2.10;;;;;;;;;;4928156;28;92592;-81
2023/01/28 07:26:03;;;;;;;4.95;2.05;;;;;;;;;;4927673;28;92765;-80
2023/01/28 07:28:29;;;;;;;3.50;2.00;;;;;;;;;;4925578;28;93127;-81
2023/01/28 07:30:56;;;;;;;3.58;1.90;;;;;;;;;;4929368;28;92222;-81
2023/01/28 07:33:22;;;;;;;4.53;1.85;;;;;;;;;;4927697;28;92395;-81
2023/01/28 07:35:49;;;;;;;4.07;1.92;;;;;;;;;;4929273;28;93926;-82
2023/01/28 07:38:15;;;;;;;3.83;1.95;;;;;;;;;;4914013;28;95326;-82
2023/01/28 07:40:41;;;;;;;3.45;2.00;;;;;;;;;;4928806;28;93163;-81
2023/01/28 07:43:09;;;;;;;3.67;1.90;;;;;;;;;;4925340;28;92994;-80
2023/01/28 07:45:37;;;;;;;4.00;2.20;;;;;;;;;;4929517;28;94546;-82
2023/01/28 07:48:04;;;;;;;4.55;2.00;;;;;;;;;;4926828;28;93358;-82
2023/01/28 07:50:31;;;;;;;;;;;;;;;;;;4929793;28;92688;-81
2023/01/28 07:52:58;;;;;;;3.22;1.80;;;;;;;;;;4933175;28;101244;-82
2023/01/28 07:55:24;;;;;;;4.15;2.13;;;;;;;;;;4929157;28;91943;-81
2023/01/28 07:57:54;;;;;;;4.38;2.15;;;;;;;;;;4928704;28;93004;-81
2023/01/28 08:00:22;;;;;;;8.40;2.33;;;;;;;;;;4917396;28;93618;-81
2023/01/28 08:02:48;;;;;;;7.88;2.85;;;;;;;;;;4914433;28;95065;-82
2023/01/28 08:05:18;;;;;;;10.10;2.97;;;;;;;;;;4927694;28;95141;-80
2023/01/28 08:07:45;;;;;;;6.53;3.20;;;;;;;;;;4927490;28;95198;-82
2023/01/28 08:10:12;;;;;;;6.35;3.40;;;;;;;;;;4927418;28;92808;-81
2023/01/28 08:12:39;;;;;;;7.65;3.50;;;;;;;;;;4927787;28;93079;-79
2023/01/28 08:15:06;;;;;;;6.43;3.47;;;;;;;;;;4927059;28;93137;-79
2023/01/28 08:17:32;;;;;;;7.90;3.80;;;;;;;;;;4927109;28;92475;-79
2023/01/28 08:19:59;;;;;;;8.55;3.58;;;;;;;;;;4930155;28;91993;-79
2023/01/28 08:22:26;;;;;;;7.30;3.55;;;;;;;;;;4926800;28;92911;-79
2023/01/28 08:24:52;;;;;;;6.40;3.70;;;;;;;;;;4926938;28;92749;-80
2023/01/28 08:27:18;;;;;;;7.00;3.97;;;;;;;;;;4923126;28;95609;-79
2023/01/28 08:29:45;;;;;;;7.75;3.88;;;;;;;;;;4917585;28;93042;-80
2023/01/28 08:32:11;;;;;;;6.78;3.78;;;;;;;;;;4927470;28;92959;-79
2023/01/28 08:34:38;;;;;;;7.85;4.30;;;;;;;;;;4927472;28;93264;-80
2023/01/28 08:37:05;;;;;;;10.05;4.30;;;;;;;;;;4925017;28;92511;-80
2023/01/28 08:39:31;;;;;;;7.78;4.28;;;;;;;;;;4925993;28;94179;-79
2023/01/28 08:41:57;;;;;;;11.77;4.75;;;;;;;;;;4926726;28;92773;-78
2023/01/28 08:44:24;;;;;;;8.45;4.63;;;;;;;;;;4917869;28;94181;-80
2023/01/28 08:46:50;;;;;;;19.52;4.90;;;;;;;;;;4926745;28;93057;-81
2023/01/28 08:49:17;;;;;;;7.43;2.60;;;;;;;;;;4927238;28;92973;-78
2023/01/28 08:51:43;;;;;;;4.68;1.90;;;;;;;;;;4917126;28;95563;-79
2023/01/28 08:54:10;;;;;;;4.32;1.65;;;;;;;;;;4926729;28;93381;-79
2023/01/28 08:56:37;;;;;;;2.22;1.52;;;;;;;;;;4928937;28;92987;-79
2023/01/28 08:59:04;;;;;;;3.47;1.40;;;;;;;;;;4919911;28;93388;-79
2023/01/28 09:01:30;;;;;;;2.88;1.50;;;;;;;;;;4931777;28;93235;-79
2023/01/28 09:03:57;;;;;;;6.38;1.55;;;;;;;;;;4930408;28;92471;-79
2023/01/28 09:06:23;;;;;;;3.42;1.58;;;;;;;;;;4930846;28;94214;-80
2023/01/28 09:08:49;;;;;;;3.25;1.42;;;;;;;;;;4930292;28;92261;-80
2023/01/28 09:11:16;;;;;;;3.35;1.50;;;;;;;;;;4929108;28;92798;-80
2023/01/28 09:13:42;;;;;;;3.10;1.30;;;;;;;;;;4927042;28;93113;-80
2023/01/28 09:16:09;;;;;;;2.10;1.30;;;;;;;;;;4920208;28;95046;-80
2023/01/28 09:18:35;;;;;;;3.92;1.30;;;;;;;;;;4930300;28;96212;-80
2023/01/28 09:21:04;;;;;;;5.25;1.50;;;;;;;;;;4930392;28;92876;-80
2023/01/28 09:23:32;;;;;;;4.47;1.50;;;;;;;;;;4930796;28;92853;-81
2023/01/28 09:25:59;;;;;;;2.13;1.33;;;;;;;;;;4929669;28;93754;-80
2023/01/28 09:28:25;;;;;;;3.05;1.40;;;;;;;;;;4929718;28;92706;-80
2023/01/28 09:30:52;;;;;;;2.97;1.20;;;;;;;;;;4930106;28;93072;-79
2023/01/28 09:33:18;;;;;;;3.67;1.33;;;;;;;;;;4942264;28;92325;-79
2023/01/28 09:35:45;;;;;;;4.50;1.50;;;;;;;;;;4948676;28;94395;-79
2023/01/28 09:38:11;;;;;;;2.97;1.40;;;;;;;;;;4929931;28;93246;-77
2023/01/28 09:40:42;;;;;;;1.85;1.20;;;;;;;;;;4947794;28;96332;-80
2023/01/28 09:43:28;;;;;;;2.58;1.30;;;;;;;;;;4948828;28;92671;-80
2023/01/28 09:45:56;;;;;;;3.72;1.30;;;;;;;;;;4949895;28;93191;-78
2023/01/28 09:48:31;;;;;;;2.28;1.35;;;;;;;;;;4946491;28;92947;-79
2023/01/28 09:50:58;;;;;;;2.15;1.27;;;;;;;;;;4948270;28;92858;-79
2023/01/28 09:53:29;;;;;;;2.55;1.20;;;;;;;;;;4946776;28;93288;-79
2023/01/28 09:56:03;;;;;;;2.55;1.23;;;;;;;;;;4947737;28;92891;-79
2023/01/28 09:58:30;;;;;;;1.92;1.23;;;;;;;;;;4929940;28;97509;-78
2023/01/28 10:01:15;;;;;;;1.85;1.20;;;;;;;;;;4918737;28;95810;-79
2023/01/28 10:03:42;;;;;;;;;;;;;;;;;;4921571;28;92326;-79
2023/01/28 10:06:27;;;;;;;1.95;1.25;;;;;;;;;;4936502;28;118280;-79
2023/01/28 10:08:56;;;;;;;2.38;1.23;;;;;;;;;;4935337;28;94262;-79
2023/01/28 10:11:29;;;;;;;1.80;1.30;;;;;;;;;;4937082;28;93296;-78
2023/01/28 10:14:18;;;;;;;2.05;1.30;;;;;;;;;;4931546;28;92522;-78
2023/01/28 10:16:54;;;;;;;3.30;1.40;;;;;;;;;;4917962;28;93050;-81
2023/01/28 10:19:29;;;;;;;1.88;1.38;;;;;;;;;;4936836;28;93630;-81
2023/01/28 10:22:00;;;;;;;2.97;1.23;;;;;;;;;;4936949;28;93146;-81
2023/01/28 10:24:30;;;;;;;1.52;1.08;;;;;;;;;;4936527;28;91797;-82
2023/01/28 10:26:56;;;;;;;1.88;1.30;;;;;;;;;;4931888;28;93076;-82
2023/01/28 10:29:24;;;;;;;2.10;1.20;;;;;;;;;;4928048;28;93053;-82
2023/01/28 10:31:51;;;;;;;5.15;1.30;;;;;;;;;;4929526;28;95435;-83
2023/01/28 10:34:18;;;;;;;1.98;1.33;;;;;;;;;;4928631;28;93301;-83
2023/01/28 10:36:46;;;;;;;2.63;1.20;;;;;;;;;;4928202;28;93334;-82
2023/01/28 10:39:16;;;;;;;1.58;1.20;;;;;;;;;;4927047;28;92844;-83
2023/01/28 10:41:43;;;;;;;3.42;1.30;;;;;;;;;;4938665;28;94992;-77
2023/01/28 10:44:30;;;;;;;3.78;1.30;;;;;;;;;;4942216;28;94104;-78
2023/01/28 10:47:00;;;;;;;6.88;1.50;;;;;;;;;;4941112;28;93341;-80
2023/01/28 10:49:28;;;;;;;7.15;1.50;;;;;;;;;;4947626;28;92315;-80
2023/01/28 10:51:54;;;;;;;3.05;1.35;;;;;;;;;;4950113;28;92814;-80
2023/01/28 10:54:25;;;;;;;3.13;1.42;;;;;;;;;;4942746;28;94607;-81
2023/01/28 10:56:57;;;;;;;3.08;1.50;;;;;;;;;;4945601;28;95305;-79
2023/01/28 10:59:31;;;;;;;3.08;1.50;;;;;;;;;;4946102;28;96678;-79
2023/01/28 11:02:17;;;;;;;4.40;1.52;;;;;;;;;;4947198;28;93637;-78
2023/01/28 11:04:44;;;;;;;3.90;1.50;;;;;;;;;;4944680;28;92804;-79
2023/01/28 11:07:18;;;;;;;2.47;1.30;;;;;;;;;;4946325;28;93032;-79
2023/01/28 11:09:46;;;;;;;2.80;1.33;;;;;;;;;;4947270;28;92886;-80
2023/01/28 11:12:18;;;;;;;2.22;1.27;;;;;;;;;;4944775;28;92732;-80
2023/01/28 11:14:58;;;;;;;2.67;1.20;;;;;;;;;;4948201;28;92824;-78
2023/01/28 11:17:26;;;;;;;3.53;1.30;;;;;;;;;;4944791;28;92898;-79
2023/01/28 11:19:53;;;;;;;3.38;1.10;;;;;;;;;;4937231;28;92645;-80
2023/01/28 11:22:20;;;;;;;2.88;1.33;;;;;;;;;;4931202;28;95390;-80
2023/01/28 11:24:46;;;;;;;2.63;1.10;;;;;;;;;;4927979;28;92541;-81
2023/01/28 11:27:17;;;;;;;2.67;1.02;;;;;;;;;;4934190;28;93712;-80
2023/01/28 11:29:43;;;;;;;1.52;1.08;;;;;;;;;;4945929;28;94707;-80
2023/01/28 11:32:17;;;;;;;1.95;0.90;;;;;;;;;;4930752;28;92759;-79
2023/01/28 11:34:49;;;;;;;2.33;1.10;;;;;;;;;;4942706;28;92817;-80
2023/01/28 11:37:15;;;;;;;2.38;1.00;;;;;;;;;;4937489;28;93282;-79
2023/01/28 11:39:41;;;;;;;2.50;0.98;;;;;;;;;;4945485;28;92869;-80
2023/01/28 11:42:10;;;;;;;1.40;0.80;;;;;;;;;;4943571;28;93613;-80
2023/01/28 11:44:37;;;;;;;1.77;0.98;;;;;;;;;;4946986;28;93009;-80
2023/01/28 11:47:16;;;;;;;1.85;0.90;;;;;;;;;;4945208;28;95647;-80
2023/01/28 11:49:45;;;;;;;1.65;0.80;;;;;;;;;;4947059;28;94112;-81
2023/01/28 11:52:12;;;;;;;3.33;0.90;;;;;;;;;;4943430;28;92631;-81
2023/01/28 11:54:38;;;;;;;2.00;0.80;;;;;;;;;;4942203;28;95957;-80
2023/01/28 11:57:19;;;;;;;2.17;1.00;;;;;;;;;;4944429;28;95678;-79
2023/01/28 11:59:51;;;;;;;2.47;0.80;;;;;;;;;;4947462;28;92624;-80
2023/01/28 12:02:29;;;;;;;2.42;0.90;;;;;;;;;;4945845;28;92990;-79
2023/01/28 12:05:11;;;;;;;2.28;1.00;;;;;;;;;;4943872;28;92457;-78
2023/01/28 12:07:41;;;;;;;3.33;0.80;;;;;;;;;;4946440;28;92992;-78
2023/01/28 12:10:19;;;;;;;2.60;0.80;;;;;;;;;;4943413;28;94283;-78
2023/01/28 12:13:04;;;;;;;2.00;1.00;;;;;;;;;;4944746;28;95456;-79
2023/01/28 12:15:52;;;;;;;2.20;0.90;;;;;;;;;;4946699;28;95166;-78
2023/01/28 12:18:18;;;;;;;1.17;0.73;;;;;;;;;;4945856;28;93120;-77
2023/01/28 12:20:45;;;;;;;1.00;0.90;;;;;;;;;;4943950;28;92774;-78
2023/01/28 12:23:11;;;;;;;2.25;0.98;;;;;;;;;;4946184;28;94198;-78
2023/01/28 12:25:47;;;;;;;1.90;1.00;;;;;;;;;;4945002;28;93209;-77
2023/01/28 12:28:24;;;;;;;1.13;0.80;;;;;;;;;;4948090;28;92913;-78
2023/01/28 12:31:12;;;;;;;2.22;1.00;;;;;;;;;;4950725;28;92933;-78
2023/01/28 12:33:57;;;;;;;2.03;1.05;;;;;;;;;;4950267;28;92609;-78
2023/01/28 12:36:24;;;;;;;2.45;0.90;;;;;;;;;;4946064;28;98665;-78
2023/01/28 12:39:00;;;;;;;1.38;1.00;;;;;;;;;;4943353;28;95701;-78
2023/01/28 12:41:31;;;;;;;1.92;1.02;;;;;;;;;;4928956;28;92802;-78
2023/01/28 12:44:00;;;;;;;2.05;1.15;;;;;;;;;;4926373;28;94075;-76
2023/01/28 12:46:45;;;;;;;2.95;0.98;;;;;;;;;;4931539;28;93920;-79
2023/01/28 12:49:16;;;;;;;1.55;0.80;;;;;;;;;;4928725;28;92933;-78
2023/01/28 12:51:57;;;;;;;1.73;1.00;;;;;;;;;;4930797;28;92766;-79
2023/01/28 12:54:27;;;;;;;1.95;1.00;;;;;;;;;;4928006;28;94648;-79
2023/01/28 12:56:55;;;;;;;2.67;1.00;;;;;;;;;;4930247;28;92573;-79
2023/01/28 12:59:21;;;;;;;;;;;;;;;;;;4930128;28;93031;-79
2023/01/28 13:02:03;;;;;;;1.90;1.02;;;;;;;;;;4930571;28;99027;-78
2023/01/28 13:04:41;;;;;;;2.05;1.02;;;;;;;;;;4946486;28;97191;-79
2023/01/28 13:07:14;;;;;;;1.15;0.88;;;;;;;;;;4941403;28;94288;-79
2023/01/28 13:10:03;;;;;;;1.27;0.80;;;;;;;;;;4946708;28;93425;-79
2023/01/28 13:12:30;;;;;;;1.58;1.00;;;;;;;;;;4948049;28;97560;-79
2023/01/28 13:14:57;;;;;;;1.38;1.00;;;;;;;;;;4939116;28;92485;-78
2023/01/28 13:17:28;;;;;;;2.25;1.10;;;;;;;;;;4934767;28;93562;-78
2023/01/28 13:19:55;;;;;;;1.55;0.93;;;;;;;;;;4933304;28;93086;-78
2023/01/28 13:22:33;;;;;;;1.58;1.02;;;;;;;;;;4929651;28;94035;-78
2023/01/28 13:25:19;;;;;;;2.10;1.17;;;;;;;;;;4946648;28;92481;-78
2023/01/28 13:28:02;;;;;;;1.85;1.08;;;;;;;;;;4940194;28;93121;-79
2023/01/28 13:30:30;;;;;;;1.65;1.10;;;;;;;;;;4931284;28;95400;-78
2023/01/28 13:32:59;;;;;;;1.48;1.00;;;;;;;;;;4933508;28;92948;-80
2023/01/28 13:35:30;;;;;;;1.63;1.10;;;;;;;;;;4944376;28;92563;-80
2023/01/28 13:37:57;;;;;;;1.05;0.90;;;;;;;;;;4946120;28;92920;-78
2023/01/28 13:40:25;;;;;;;3.75;1.30;;;;;;;;;;4929000;28;93216;-79
2023/01/28 13:42:57;;;;;;;4.53;1.13;;;;;;;;;;4929739;28;93141;-79
2023/01/28 13:45:24;;;;;;;3.38;1.35;;;;;;;;;;4927732;28;93268;-79
2023/01/28 13:47:57;;;;;;;5.20;1.25;;;;;;;;;;4925892;28;92506;-79
2023/01/28 13:50:24;;;;;;;3.72;1.05;;;;;;;;;;4913269;28;93545;-79
2023/01/28 13:52:56;;;;;;;3.50;1.02;;;;;;;;;;4936827;28;94460;-79
2023/01/28 13:55:30;;;;;;;2.53;1.02;;;;;;;;;;4945488;28;95238;-78
2023/01/28 13:58:17;;;;;;;1.85;0.90;;;;;;;;;;4948029;28;94885;-79
2023/01/28 14:00:44;;;;;;;3.55;1.00;;;;;;;;;;4948702;28;93212;-79
2023/01/28 14:03:29;;;;;;;1.67;0.88;;;;;;;;;;4941222;28;92619;-79
2023/01/28 14:05:55;;;;;;;1.40;0.90;;;;;;;;;;4937167;28;92685;-79
2023/01/28 14:08:34;;;;;;;2.13;1.00;;;;;;;;;;4945519;28;94637;-79
2023/01/28 14:11:15;;;;;;;1.83;0.90;;;;;;;;;;4946363;28;92660;-79
2023/01/28 14:13:48;;;;;;;4.25;1.00;;;;;;;;;;4948868;28;94086;-79
2023/01/28 14:16:16;;;;;;;2.30;0.80;;;;;;;;;;4941671;28;93458;-79
2023/01/28 14:18:43;;;;;;;2.30;0.98;;;;;;;;;;4942167;28;95843;-79
2023/01/28 14:21:19;;;;;;;2.60;0.82;;;;;;;;;;4937656;28;95438;-79
2023/01/28 14:23:53;;;;;;;1.80;0.93;;;;;;;;;;4946281;28;92999;-78
2023/01/28 14:26:33;;;;;;;0.98;0.70;;;;;;;;;;4945897;28;94416;-78
2023/01/28 14:29:18;;;;;;;1.05;0.82;;;;;;;;;;4947772;28;93439;-79
2023/01/28 14:31:45;;;;;;;2.13;0.98;;;;;;;;;;4930776;28;92803;-79
2023/01/28 14:34:15;;;;;;;2.05;0.82;;;;;;;;;;4925580;28;92758;-80
2023/01/28 14:36:43;;;;;;;1.65;0.88;;;;;;;;;;4925776;28;93615;-80
2023/01/28 14:39:15;;;;;;;1.77;1.02;;;;;;;;;;4933480;28;91898;-78
2023/01/28 14:41:43;;;;;;;3.15;1.00;;;;;;;;;;4926412;28;93086;-78
2023/01/28 14:44:11;;;;;;;3.90;1.10;;;;;;;;;;4929021;28;92763;-79
2023/01/28 14:46:44;;;;;;;2.30;1.20;;;;;;;;;;4943890;28;95017;-77
2023/01/28 14:49:21;;;;;;;4.13;1.20;;;;;;;;;;4932409;28;94128;-78
2023/01/28 14:51:50;;;;;;;2.80;1.30;;;;;;;;;;4927696;28;92842;-78
2023/01/28 14:54:24;;;;;;;2.60;1.23;;;;;;;;;;4945719;28;92751;-78
2023/01/28 14:56:50;;;;;;;;;;;;;;;;;;4945150;28;94229;-78
2023/01/28 14:59:38;;;;;;;2.42;1.15;;;;;;;;;;4946679;28;116735;-77
2023/01/28 15:02:17;;;;;;;2.80;1.30;;;;;;;;;;4948151;28;94125;-77
2023/01/28 15:04:44;;;;;;;2.03;1.10;;;;;;;;;;4946668;28;92544;-78
2023/01/28 15:07:18;;;;;;;2.22;1.20;;;;;;;;;;4944644;28;92723;-78
2023/01/28 15:09:44;;;;;;;2.30;1.10;;;;;;;;;;4945214;28;93683;-78
2023/01/28 15:12:12;;;;;;;3.13;1.10;;;;;;;;;;4940199;28;95359;-78
2023/01/28 15:14:39;;;;;;;2.78;1.10;;;;;;;;;;4947007;28;93976;-80
2023/01/28 15:17:05;;;;;;;;;;;;;;;;;;4945054;28;93837;-81
2023/01/28 15:19:33;;;;;;;3.67;1.48;;;;;;;;;;4945890;28;116808;-81
2023/01/28 15:22:04;;;;;;;4.35;1.42;;;;;;;;;;4948672;28;92904;-80
2023/01/28 15:24:32;;;;;;;2.42;1.40;;;;;;;;;;4943932;28;92942;-81
2023/01/28 15:26:59;;;;;;;4.40;1.50;;;;;;;;;;4944488;28;93820;-80
2023/01/28 15:29:31;;;;;;;3.13;1.40;;;;;;;;;;4944042;28;92386;-81
2023/01/28 15:31:59;;;;;;;2.63;1.40;;;;;;;;;;4944566;28;92502;-79
2023/01/28 15:34:29;;;;;;;2.67;1.35;;;;;;;;;;4946303;28;92950;-79
2023/01/28 15:36:56;;;;;;;2.53;1.30;;;;;;;;;;4932333;28;96023;-80
2023/01/28 15:39:22;;;;;;;;;;;;;;;;;;4927957;28;92749;-81